Tiempo atmosférico en la estación meteorológica de Mogán, Puerto, Las Palmas (10 m.)



Fecha
DESCASC
Temp. máxima en grados centígrados (hora)
DESCASC
Temp. mínima en grados centígrados (hora)
DESCASC
Temp. media en grados centígrados
DESCASC
Racha de viento máxima en m/sg (hora)
DESCASC
Velocidad máxima media en intervalos de 10 minutos(hora)
DESCASC
Precipitaciones diarias en mm
DESCASC
Precipitaciones de 00:00 a 06:00 en mm
DESCASC
Precipitaciones de 06:00 a 12:00 en mm
DESCASC
Precipitaciones de 12:00 a 18:00 en mm
DESCASC
Precipitaciones de 18:00 a 24:00 en mm
DESCASC
17-02-2019 23.2 (10:50) 15.7 (08:20) 19.5 5.28 (01:50) 4.17 (04:40) 0 0 0 0 0
16-02-2019 22.8 (13:20) 16.2 (06:30) 19.5 10.83 (05:50) 6.94 (14:50) 0 0 0 0 0
15-02-2019 24.1 (12:20) 17.4 (07:20) 20.8 12.5 (22:10) 8.06 (15:20) 0 0 0 0 0
14-02-2019 26.5 (05:20) 20.8 (00:00) 23.6 15 (12:10) 8.89 (13:20) 0 0 0 0 0
13-02-2019 29 (12:20) 16.6 (00:00) 22.8 11.11 (13:20) 8.61 (13:10) 0 0 0 0 0
12-02-2019 25.6 (13:10) 17.7 (00:00) 21.7 7.5 (13:00) 5.56 (12:40) 0 0 0 0 0
11-02-2019 26.2 (02:20) 18.9 (00:00) 22.6 8.89 (05:00) 6.94 (14:40) 0 0 0 0 0
10-02-2019 23.4 (16:10) 15.6 (04:30) 19.5 8.89 (13:00) 6.67 (14:20) 0 0 0 0 0
09-02-2019 24 (14:00) 12.3 (05:40) 18.2 8.89 (15:10) 7.5 (15:10) 0 0 0 0 0
08-02-2019 21.2 (12:40) 13.4 (06:50) 17.3 12.78 (07:50) 5 (14:50) 0 0 0 0 0

Gráficas

Temp. máximas Temp. mínimas Temp. medias Precipitaciones Rachas de viento máximas Velocidades máximas media en intervalos de 10 minutos

Datos horarios

Fecha y hora oficial Temperatura (ºC) Velocidad del viento (km/h) Dirección del viento Racha (km/h) Dirección de racha Precipitación (mm) Presión (hPa) Tendencia (hPa) Humedad (%)
2019-02-17 23:00:00 17.7 9 Norte 13 Norte 0 -- -- 41
2019-02-17 22:00:00 18.9 7 Nordeste 9 Norte 0 -- -- 40
2019-02-17 21:00:00 18.9 3 Oeste 4 Oeste 0 -- -- 49
2019-02-17 20:00:00 19.2 0 Calma 6 Oeste 0 -- -- 44
2019-02-17 19:00:00 19.9 4 Oeste 9 Oeste 0 -- -- 42
2019-02-17 18:00:00 22 5 Oeste 10 Sudoeste 0 -- -- 40
2019-02-17 17:00:00 22.4 8 Oeste 15 Oeste 0 -- -- 40
2019-02-17 16:00:00 21.7 11 Oeste 15 Oeste 0 -- -- 39
2019-02-17 15:00:00 21.5 13 Oeste 18 Oeste 0 -- -- 40
2019-02-17 14:00:00 22 9 Oeste 13 Oeste 0 -- -- 40
2019-02-17 13:00:00 22.4 5 Oeste 15 Oeste 0 -- -- 41
2019-02-17 12:00:00 21.2 8 Oeste 13 Oeste 0 -- -- 43
2019-02-17 11:00:00 22.4 4 Sudoeste 7 Sudoeste 0 -- -- 36
2019-02-17 10:00:00 20.5 2 Nordeste 14 Norte 0 -- -- 30
2019-02-17 09:00:00 17.2 12 Norte 17 Norte 0 -- -- 32
2019-02-17 08:00:00 16.5 12 Norte 15 Nordeste 0 -- -- 33
2019-02-17 07:00:00 16.3 10 Nordeste 16 Norte 0 -- -- 34
2019-02-17 06:00:00 16.7 13 Norte 18 Norte 0 -- -- 35
2019-02-17 05:00:00 16.6 14 Norte 19 Norte 0 -- -- 36
2019-02-17 04:00:00 16.2 15 Norte 18 Norte 0 -- -- 40
2019-02-17 03:00:00 17 14 Norte 17 Norte 0 -- -- 42
2019-02-17 02:00:00 17.1 13 Norte 19 Norte 0 -- -- 44
2019-02-17 01:00:00 17.6 9 Norte 11 Norte 0 -- -- 45
2019-02-17 00:00:00 18.9 8 Este 13 Sudeste 0 -- -- 54
2019-02-16 23:00:00 19.5 7 Nordeste 18 Norte 0 -- -- 41
2019-02-16 22:00:00 19.1 3 Norte 13 Norte 0 -- -- 45
2019-02-16 21:00:00 19.1 3 Norte 7 Norte 0 -- -- 60
2019-02-16 20:00:00 18.9 0 Calma 6 Sudeste 0 -- -- 59
2019-02-16 19:00:00 19.4 3 Sudeste 6 Sur 0 -- -- 55
2019-02-16 18:00:00 20.4 5 Sudeste 19 Sudeste 0 -- -- 54
2019-02-16 17:00:00 20.9 19 Sudeste 26 Sudeste 0 -- -- 53
2019-02-16 16:00:00 20.7 24 Sudeste 28 Sudeste 0 -- -- 53
2019-02-16 15:00:00 21.4 22 Sudeste 29 Sudeste 0 -- -- 50
2019-02-16 14:00:00 21.1 18 Sudeste 32 Norte 0 -- -- 49
2019-02-16 13:00:00 22.1 13 Nordeste 32 Nordeste 0 -- -- 36
2019-02-16 12:00:00 21.1 16 Nordeste 30 Nordeste 0 -- -- 39
2019-02-16 11:00:00 20.9 11 Nordeste 31 Nordeste 0 -- -- 43
2019-02-16 10:00:00 20.4 9 Este 23 Nordeste 0 -- -- 48
2019-02-16 09:00:00 19.5 0 Calma 18 Norte 0 -- -- 49
2019-02-16 08:00:00 17.7 6 Norte 22 Nordeste 0 -- -- 51
2019-02-16 07:00:00 17.7 10 Norte 32 Norte 0 -- -- 50
2019-02-16 06:00:00 17.1 21 Norte 39 Noroeste 0 -- -- 52
2019-02-16 05:00:00 17.6 23 Norte 37 Norte 0 -- -- 51
2019-02-16 04:00:00 17.8 12 Norte 23 Noroeste 0 -- -- 48
2019-02-16 03:00:00 18.4 10 Norte 19 Norte 0 -- -- 46
2019-02-16 02:00:00 18.4 6 Noroeste 25 Norte 0 -- -- 44
2019-02-16 01:00:00 18.4 13 Norte 30 Noroeste 0 -- -- 44
2019-02-16 00:00:00 18.8 13 Norte 38 Nordeste 0 -- -- 41
2019-02-15 23:00:00 18.9 17 Norte 45 Nordeste 0 -- -- 41
2019-02-15 22:00:00 18.8 16 Norte 43 Norte 0 -- -- 40
2019-02-15 21:00:00 19.2 17 Norte 35 Norte 0 -- -- 40
2019-02-15 20:00:00 19.2 11 Norte 36 Nordeste 0 -- -- 37
2019-02-15 19:00:00 19.9 10 Norte 35 Nordeste 0 -- -- 37
2019-02-15 18:00:00 20.5 11 Norte 28 Nordeste 0 -- -- 37
2019-02-15 17:00:00 22 13 Norte 35 Oeste 0 -- -- 37
2019-02-15 16:00:00 22.3 13 Oeste 43 Oeste 0 -- -- 41
2019-02-15 15:00:00 20.6 24 Oeste 35 Oeste 0 -- -- 45
2019-02-15 14:00:00 20.9 13 Oeste 28 Oeste 0 -- -- 49
2019-02-15 13:00:00 20.9 12 Oeste 22 Oeste 0 -- -- 55
2019-02-15 12:00:00 22.3 4 Sur 15 Sudoeste 0 -- -- 55
2019-02-15 11:00:00 20.4 10 Sudoeste 20 Oeste 0 -- -- 54
2019-02-15 10:00:00 21.1 9 Oeste 24 Oeste 0 -- -- 53
2019-02-15 09:00:00 21 7 Oeste 27 Oeste 0 -- -- 58
2019-02-15 08:00:00 18.5 5 Norte 14 Norte 0 -- -- 46
2019-02-15 07:00:00 17.9 10 Norte 14 Norte 0 -- -- 44
2019-02-15 06:00:00 18.7 3 Norte 11 Oeste 0 -- -- 50
2019-02-15 05:00:00 19.7 3 Noroeste 10 Sudoeste 0 -- -- 46
2019-02-15 04:00:00 20 6 Norte 18 Norte 0 -- -- 26
2019-02-15 03:00:00 19.5 16 Norte 24 Nordeste 0 -- -- 28
2019-02-15 02:00:00 21 2 Oeste 15 Norte 0 -- -- 29
2019-02-15 01:00:00 20.1 9 Norte 15 Norte 0 -- -- 23
2019-02-15 00:00:00 21 12 Norte 18 Norte 0 -- -- 23
2019-02-14 23:00:00 21.3 13 Norte 16 Norte 0 -- -- 23
2019-02-14 22:00:00 22.3 9 Nordeste 18 Este 0 -- -- 23
2019-02-14 21:00:00 24.1 8 Este 23 Este 0 -- -- 23
2019-02-14 20:00:00 23.8 9 Este 29 Sudeste 0 -- -- 25
2019-02-14 19:00:00 23.9 17 Este 42 Este 0 -- -- 26
2019-02-14 18:00:00 23.7 23 Este 41 Este 0 -- -- 27
2019-02-14 17:00:00 24.2 27 Este 46 Este 0 -- -- 27
2019-02-14 16:00:00 24.1 26 Este 47 Sudeste 0 -- -- 29
2019-02-14 15:00:00 23.3 28 Sudeste 52 Este 0 -- -- 29
2019-02-14 14:00:00 24.1 28 Sudeste 49 Este 0 -- -- 29
2019-02-14 13:00:00 24.6 27 Este 54 Este 0 -- -- 28
2019-02-14 12:00:00 24.1 32 Este 53 Este 0 -- -- 28
2019-02-14 11:00:00 24.7 27 Este 49 Este 0 -- -- 23
2019-02-14 10:00:00 25.5 22 Este 41 Este 0 -- -- 20
2019-02-14 09:00:00 25.4 17 Este 42 Este 0 -- -- 15
2019-02-14 08:00:00 24.8 19 Este 40 Sudeste 0 -- -- --
2019-02-14 07:00:00 25.7 18 Nordeste 33 Sudeste 0 -- -- --
2019-02-14 06:00:00 26.4 17 Nordeste 33 Nordeste 0 -- -- --
2019-02-14 05:00:00 25.4 16 Nordeste 28 Nordeste 0 -- -- 12
2019-02-14 04:00:00 22.6 5 Este 25 Sudeste 0 -- -- 23
2019-02-14 03:00:00 23.4 6 Nordeste 19 Sudeste 0 -- -- 16
2019-02-14 02:00:00 22.1 5 Este 23 Norte 0 -- -- 29
2019-02-14 01:00:00 23.3 17 Nordeste 23 Nordeste 0 -- -- --
2019-02-14 00:00:00 23.6 12 Norte 21 Norte 0 -- -- --
2019-02-13 23:00:00 23.9 17 Norte 21 Norte 0 -- -- --
2019-02-13 22:00:00 23.7 17 Norte 20 Norte 0 -- -- --
2019-02-13 21:00:00 24.3 14 Nordeste 19 Nordeste 0 -- -- 12
2019-02-13 20:00:00 24.5 8 Norte 17 Este 0 -- -- 14
2019-02-13 19:00:00 24.5 12 Sudeste 20 Sudeste 0 -- -- 19
2019-02-13 18:00:00 25.5 15 Sudeste 25 Sudeste 0 -- -- 18
2019-02-13 17:00:00 25.9 17 Sudeste 26 Sudeste 0 -- -- 20
2019-02-13 16:00:00 25.8 24 Sudeste 31 Sudeste 0 -- -- 18
2019-02-13 15:00:00 25.6 27 Sudeste 35 Sudeste 0 -- -- 21
2019-02-13 14:00:00 25.4 29 Sudeste 40 Sudeste 0 -- -- 26
2019-02-13 13:00:00 24.4 28 Sudeste 38 Sudeste 0 -- -- 32
2019-02-13 12:00:00 28.4 25 Este 40 Este 0 -- -- 13
2019-02-13 11:00:00 24.5 5 Oeste 16 Oeste 0 -- -- 42
2019-02-13 10:00:00 25.2 4 Este 22 Este 0 -- -- 27
2019-02-13 09:00:00 20.8 3 Este 14 Norte 0 -- -- 39
2019-02-13 08:00:00 18.4 5 Este 15 Norte 0 -- -- 43
2019-02-13 07:00:00 17.1 7 Norte 13 Norte 0 -- -- 31
2019-02-13 06:00:00 17.9 5 Norte 9 Sudeste 0 -- -- 35
2019-02-13 05:00:00 19 3 Nordeste 11 Norte 0 -- -- 20
2019-02-13 04:00:00 19.2 3 Norte 11 Norte 0 -- -- 18
2019-02-13 03:00:00 19.1 5 Nordeste 15 Nordeste 0 -- -- 18
2019-02-13 02:00:00 19.7 9 Norte 18 Norte 0 -- -- 20
2019-02-13 01:00:00 19 5 Sudeste 13 Sudeste 0 -- -- 51
2019-02-13 00:00:00 20.1 0 Calma 9 Norte 0 -- -- 28
2019-02-12 23:00:00 19.5 5 Norte 8 Norte 0 -- -- 27
2019-02-12 22:00:00 19.4 4 Nordeste 5 Nordeste 0 -- -- 62
2019-02-12 21:00:00 19.4 0 Calma 6 Este 0 -- -- 66
2019-02-12 20:00:00 20.3 5 Este 7 Este 0 -- -- 61
2019-02-12 19:00:00 20.8 4 Sudeste 11 Oeste 0 -- -- 54
2019-02-12 18:00:00 24.2 6 Oeste 19 Oeste 0 -- -- 33
2019-02-12 17:00:00 24.9 11 Oeste 21 Oeste 0 -- -- 33
2019-02-12 16:00:00 24.3 15 Oeste 22 Oeste 0 -- -- 36
2019-02-12 15:00:00 24.7 13 Oeste 24 Oeste 0 -- -- 37
2019-02-12 14:00:00 24.3 17 Oeste 25 Oeste 0 -- -- 33
2019-02-12 13:00:00 23.8 17 Oeste 27 Oeste 0 -- -- 35
2019-02-12 12:00:00 23.5 16 Oeste 21 Oeste 0 -- -- 34
2019-02-12 11:00:00 22.7 16 Oeste 20 Oeste 0 -- -- 34
2019-02-12 10:00:00 22.5 5 Noroeste 15 Norte 0 -- -- 21
2019-02-12 09:00:00 19.2 8 Norte 16 Norte 0 -- -- 17
2019-02-12 08:00:00 17.8 12 Norte 16 Norte 0 -- -- 17
2019-02-12 07:00:00 18.2 11 Norte 20 Nordeste 0 -- -- 16
2019-02-12 06:00:00 18.8 15 Norte 20 Norte 0 -- -- 16
2019-02-12 05:00:00 18.3 9 Norte 16 Norte 0 -- -- 16
2019-02-12 04:00:00 19.2 8 Norte 15 Norte 0 -- -- 15
2019-02-12 03:00:00 19.5 11 Nordeste 15 Nordeste 0 -- -- 15
2019-02-12 02:00:00 18.8 9 Norte 11 Norte 0 -- -- 15
2019-02-12 01:00:00 20.9 8 Norte 14 Norte 0 -- -- 14
2019-02-12 00:00:00 19.9 10 Norte 15 Nordeste 0 -- -- 20
2019-02-11 23:00:00 20 4 Este 16 Nordeste 0 -- -- 53